Time;durP1;ratioP1;P1;durP2;ratioP2;P2;SDS_P1;SDS_P2;PMS_P1;PMS_P2;Temp;Humidity;BMP_temperature;BMP_pressure;BME280_temperature;BME280_humidity;BME280_pressure;Samples;Min_cycle;Max_cycle;Signal;HPM_P1;HPM_P2
2022/04/26 03:37:17;;;;;;;8.57;5.47;;;7.60;99.90;;;;;;5028443;28;20404;-78
2022/04/26 03:39:43;;;;;;;10.82;6.05;;;7.60;99.90;;;;;;5028046;28;20496;-78
2022/04/26 03:42:09;;;;;;;12.23;6.38;;;7.60;99.90;;;;;;5026473;28;20476;-78
2022/04/26 03:44:35;;;;;;;8.40;5.88;;;7.60;99.90;;;;;;5028187;28;20049;-77
2022/04/26 03:47:00;;;;;;;11.23;7.07;;;7.60;99.90;;;;;;5026979;28;20108;-77
2022/04/26 03:49:27;;;;;;;13.80;6.38;;;7.60;99.90;;;;;;5027763;28;20486;-77
2022/04/26 03:51:53;;;;;;;12.23;6.50;;;7.70;99.90;;;;;;5028216;28;20068;-78
2022/04/26 03:54:20;;;;;;;11.10;6.68;;;7.60;99.90;;;;;;5029256;28;20029;-77
2022/04/26 03:56:46;;;;;;;12.40;6.93;;;7.50;99.90;;;;;;5027450;28;20024;-78
2022/04/26 03:59:12;;;;;;;12.13;7.00;;;7.60;99.90;;;;;;5027748;28;20025;-77
2022/04/26 04:01:39;;;;;;;13.70;7.72;;;7.60;99.90;;;;;;5028770;28;20076;-77
2022/04/26 04:04:05;;;;;;;13.75;7.55;;;8.00;99.90;;;;;;5028739;28;20132;-78
2022/04/26 04:06:31;;;;;;;10.80;7.13;;;7.50;99.90;;;;;;5027887;28;20163;-78
2022/04/26 04:08:56;;;;;;;12.25;8.07;;;7.50;99.90;;;;;;5028934;28;20537;-77
2022/04/26 04:11:22;;;;;;;12.77;8.45;;;7.50;99.90;;;;;;5027605;28;20041;-78
2022/04/26 04:13:48;;;;;;;11.80;7.30;;;7.50;99.90;;;;;;5028746;28;20127;-77
2022/04/26 04:16:14;;;;;;;14.40;7.68;;;7.50;99.90;;;;;;5028673;28;20490;-77
2022/04/26 04:21:24;;;;;;;17.98;7.88;;;7.50;99.90;;;;;;5028655;28;20079;-77
2022/04/26 04:23:50;;;;;;;12.50;7.80;;;7.50;99.90;;;;;;5031651;28;20386;-77
2022/04/26 04:26:16;;;;;;;15.93;8.55;;;7.50;99.90;;;;;;5030899;28;20032;-78
2022/04/26 04:28:42;;;;;;;17.60;9.35;;;7.40;99.90;;;;;;5031362;28;20032;-77
2022/04/26 04:31:09;;;;;;;14.32;9.30;;;7.40;99.90;;;;;;5031081;28;20087;-77
2022/04/26 04:33:36;;;;;;;14.27;8.80;;;7.40;99.90;;;;;;5030817;28;20037;-77
2022/04/26 04:36:02;;;;;;;15.80;8.52;;;7.40;99.90;;;;;;5032364;28;20025;-77
2022/04/26 04:38:27;;;;;;;14.52;8.68;;;7.30;99.90;;;;;;5030912;28;20048;-78
2022/04/26 04:40:56;;;;;;;18.08;8.65;;;7.30;99.90;;;;;;5048006;28;20032;-78
2022/04/26 04:43:21;;;;;;;16.77;9.15;;;7.30;99.90;;;;;;5034544;28;20021;-78
2022/04/26 04:45:47;;;;;;;14.57;8.27;;;7.30;99.90;;;;;;5029658;28;20100;-77
2022/04/26 04:48:14;;;;;;;16.58;9.07;;;7.30;99.90;;;;;;5029348;28;20030;-77
2022/04/26 04:50:40;;;;;;;17.42;9.70;;;7.40;99.90;;;;;;5031541;28;20267;-78
2022/04/26 04:53:06;;;;;;;15.20;8.65;;;7.40;99.90;;;;;;5030423;28;20293;-78
2022/04/26 04:55:32;;;;;;;14.90;9.32;;;7.30;99.90;;;;;;5031626;28;20049;-78
2022/04/26 04:57:57;;;;;;;13.25;8.30;;;7.30;99.90;;;;;;5031455;28;20033;-78
2022/04/26 05:00:23;;;;;;;13.40;8.43;;;7.30;99.90;;;;;;5031650;28;20021;-77
2022/04/26 05:02:49;;;;;;;15.65;9.25;;;7.30;99.90;;;;;;5030522;28;20034;-78
2022/04/26 05:05:15;;;;;;;15.50;9.38;;;7.50;99.90;;;;;;5032338;28;20092;-77
2022/04/26 05:07:42;;;;;;;19.65;8.60;;;7.20;99.90;;;;;;5031803;28;20467;-78
2022/04/26 05:10:08;;;;;;;14.27;8.95;;;7.30;99.90;;;;;;5030449;28;20026;-78
2022/04/26 05:12:34;;;;;;;14.00;8.75;;;7.30;99.90;;;;;;5029257;28;20450;-78
2022/04/26 05:15:01;;;;;;;16.83;8.43;;;7.30;99.90;;;;;;5029558;28;20054;-78
2022/04/26 05:17:27;;;;;;;15.88;7.80;;;7.30;99.90;;;;;;5030967;28;20379;-77
2022/04/26 05:19:54;;;;;;;13.05;7.75;;;7.30;99.90;;;;;;5036302;28;20025;-77
2022/04/26 05:22:19;;;;;;;12.82;7.80;;;7.30;99.90;;;;;;5041108;28;20027;-77
2022/04/26 05:24:54;;;;;;;14.80;7.97;;;7.30;99.90;;;;;;5042431;28;20025;-78
2022/04/26 05:27:21;;;;;;;12.90;8.82;;;7.30;99.90;;;;;;5036860;28;20122;-78
2022/04/26 05:29:47;;;;;;;14.30;7.97;;;7.30;99.90;;;;;;5032110;28;20057;-78
2022/04/26 05:32:12;;;;;;;14.55;8.45;;;7.30;99.90;;;;;;5038184;28;20037;-76
2022/04/26 05:34:38;;;;;;;15.23;8.82;;;7.40;99.90;;;;;;5050789;28;20037;-76
2022/04/26 05:37:04;;;;;;;16.50;8.25;;;7.30;99.90;;;;;;5051558;28;20078;-77
2022/04/26 05:39:30;;;;;;;15.13;8.80;;;7.40;99.90;;;;;;5054727;28;20081;-76
2022/04/26 05:41:55;;;;;;;18.17;10.07;;;7.40;99.90;;;;;;5056896;28;20373;-77
2022/04/26 05:44:21;;;;;;;15.57;9.20;;;7.40;99.90;;;;;;5052242;28;20481;-77
2022/04/26 05:46:47;;;;;;;15.45;9.23;;;7.50;99.90;;;;;;5051024;28;20021;-77
2022/04/26 05:49:12;;;;;;;18.90;9.38;;;7.50;99.90;;;;;;5049098;28;20029;-77
2022/04/26 05:51:38;;;;;;;14.70;8.95;;;7.50;99.90;;;;;;5050508;28;20025;-77
2022/04/26 05:54:04;;;;;;;13.68;8.60;;;7.50;99.90;;;;;;5050594;28;20554;-78
2022/04/26 05:56:30;;;;;;;14.40;8.70;;;7.50;99.90;;;;;;5050472;28;20032;-77
2022/04/26 05:58:55;;;;;;;16.73;9.50;;;7.50;99.90;;;;;;5049591;28;20029;-77
2022/04/26 06:01:21;;;;;;;12.35;8.98;;;7.50;99.90;;;;;;5054319;28;20021;-77
2022/04/26 06:03:47;;;;;;;15.20;8.27;;;7.50;99.90;;;;;;5053516;28;20159;-78
2022/04/26 06:06:12;;;;;;;14.07;8.50;;;7.50;99.90;;;;;;5053478;28;20466;-77
2022/04/26 06:08:38;;;;;;;14.07;8.77;;;7.50;99.90;;;;;;5052722;28;20493;-77
2022/04/26 06:11:04;;;;;;;13.02;8.55;;;7.50;99.90;;;;;;5051016;28;20039;-78
2022/04/26 06:13:29;;;;;;;14.82;7.68;;;7.60;99.90;;;;;;5050381;28;20049;-76
2022/04/26 06:15:55;;;;;;;12.25;7.55;;;7.60;99.90;;;;;;5050389;28;20124;-77
2022/04/26 06:18:21;;;;;;;14.90;8.30;;;7.60;99.90;;;;;;5052030;28;20024;-77
2022/04/26 06:20:46;;;;;;;12.05;7.30;;;7.60;99.90;;;;;;5051008;28;20557;-76
2022/04/26 06:23:12;;;;;;;14.57;7.82;;;7.60;99.90;;;;;;5052146;28;20025;-77
2022/04/26 06:25:39;;;;;;;11.55;7.47;;;7.60;99.90;;;;;;5050917;28;20021;-76
2022/04/26 06:28:06;;;;;;;9.60;7.13;;;7.60;99.90;;;;;;5050433;28;20051;-77
2022/04/26 06:30:32;;;;;;;14.30;8.00;;;7.60;99.90;;;;;;5053049;28;20075;-77
2022/04/26 06:32:57;;;;;;;11.70;7.57;;;7.70;99.90;;;;;;5056901;28;20033;-76
2022/04/26 06:35:23;;;;;;;12.85;7.70;;;7.70;99.90;;;;;;5054500;28;20055;-76
2022/04/26 06:37:49;;;;;;;13.45;8.02;;;7.70;99.90;;;;;;5050968;28;20078;-77
2022/04/26 06:40:14;;;;;;;12.10;7.05;;;7.70;99.90;;;;;;5051182;28;20100;-76
2022/04/26 06:42:40;;;;;;;15.18;7.47;;;7.70;99.90;;;;;;5049563;28;20485;-76
2022/04/26 06:45:07;;;;;;;11.38;7.18;;;7.60;99.90;;;;;;5049790;28;20102;-77
2022/04/26 06:47:33;;;;;;;14.82;5.80;;;7.60;99.90;;;;;;5043066;28;20151;-76
2022/04/26 06:49:59;;;;;;;9.18;6.40;;;7.60;99.90;;;;;;5042733;28;20556;-76
2022/04/26 06:52:25;;;;;;;8.70;5.88;;;7.50;99.90;;;;;;5049778;28;20037;-76
2022/04/26 06:54:50;;;;;;;10.70;7.07;;;7.50;99.90;;;;;;5036709;28;20529;-76
2022/04/26 06:57:17;;;;;;;10.55;6.40;;;7.50;99.90;;;;;;5026835;28;20072;-76
2022/04/26 06:59:43;;;;;;;9.68;6.15;;;7.40;99.90;;;;;;5043091;28;20020;-77
2022/04/26 07:02:09;;;;;;;8.65;5.20;;;7.40;99.90;;;;;;5047458;28;20033;-76
2022/04/26 07:04:34;;;;;;;9.32;5.43;;;7.40;99.90;;;;;;5047498;28;20017;-76
2022/04/26 07:07:00;;;;;;;6.70;5.55;;;7.50;99.90;;;;;;5035929;28;20482;-76
2022/04/26 07:09:26;;;;;;;8.73;5.00;;;7.50;99.90;;;;;;5027035;28;20028;-77
2022/04/26 07:11:52;;;;;;;8.95;5.70;;;7.50;99.90;;;;;;5024779;28;20040;-76
2022/04/26 07:14:18;;;;;;;9.40;6.47;;;8.00;99.90;;;;;;5026550;28;20494;-75
2022/04/26 07:16:49;;;;;;;10.93;6.18;;;7.50;99.90;;;;;;5026055;28;20116;-77
2022/04/26 07:19:17;;;;;;;8.25;4.65;;;7.70;99.90;;;;;;5026361;28;20069;-76
2022/04/26 07:21:47;;;;;;;11.25;6.40;;;7.90;99.90;;;;;;5026333;28;20575;-78
2022/04/26 07:24:13;;;;;;;10.05;5.68;;;8.10;99.90;;;;;;5026051;28;20025;-77
2022/04/26 07:26:39;;;;;;;11.10;5.88;;;8.40;99.90;;;;;;5025002;28;20324;-77
2022/04/26 07:29:05;;;;;;;7.50;4.95;;;8.60;99.90;;;;;;5026201;28;20025;-77
2022/04/26 07:31:31;;;;;;;5.68;4.07;;;8.80;99.90;;;;;;5026054;28;20021;-77
2022/04/26 07:36:41;;;;;;;6.97;4.55;;;9.20;99.90;;;;;;5026918;28;20464;-77
2022/04/26 07:39:07;;;;;;;5.72;3.97;;;9.40;99.90;;;;;;5025522;28;20470;-77
2022/04/26 07:41:33;;;;;;;4.78;3.60;;;9.40;99.90;;;;;;5025862;28;20276;-78
2022/04/26 07:43:58;;;;;;;5.60;3.63;;;9.40;99.90;;;;;;5039141;28;20025;-77
2022/04/26 07:46:24;;;;;;;5.65;4.15;;;9.20;99.90;;;;;;5045876;28;20020;-77
2022/04/26 07:48:51;;;;;;;4.10;3.10;;;9.40;99.90;;;;;;5045473;28;20067;-77
2022/04/26 07:51:18;;;;;;;5.72;3.55;;;9.40;99.90;;;;;;5046533;28;20102;-78
2022/04/26 07:53:45;;;;;;;7.05;3.45;;;9.50;99.90;;;;;;5045645;28;20034;-77
2022/04/26 07:56:10;;;;;;;4.45;3.08;;;10.00;99.90;;;;;;5043898;28;20036;-77
2022/04/26 07:58:36;;;;;;;3.25;2.95;;;10.40;99.90;;;;;;5048390;28;20029;-77
2022/04/26 08:01:03;;;;;;;8.10;3.38;;;10.70;99.90;;;;;;5049874;28;20028;-77
2022/04/26 08:03:32;;;;;;;4.78;2.80;;;10.80;99.90;;;;;;5048333;28;20032;-77
2022/04/26 08:05:58;;;;;;;9.88;3.13;;;11.30;99.90;;;;;;5049702;28;20021;-77
2022/04/26 08:08:24;;;;;;;2.92;2.60;;;11.70;99.90;;;;;;5047960;28;20389;-77
2022/04/26 08:10:50;;;;;;;3.28;2.70;;;11.70;99.90;;;;;;5049644;28;20037;-77
2022/04/26 08:13:16;;;;;;;5.00;3.10;;;12.10;99.90;;;;;;5048282;28;20048;-77
2022/04/26 08:15:42;;;;;;;3.22;2.45;;;12.20;99.90;;;;;;5045596;28;20041;-77
2022/04/26 08:18:09;;;;;;;10.50;3.22;;;12.70;99.90;;;;;;5028484;28;20600;-77
2022/04/26 08:20:36;;;;;;;4.85;3.58;;;13.40;99.90;;;;;;5029190;28;20052;-77
2022/04/26 08:23:02;;;;;;;3.83;2.80;;;13.30;99.90;;;;;;5029407;28;20029;-77
2022/04/26 08:28:12;;;;;;;3.60;2.33;;;13.50;99.90;;;;;;5029112;28;20382;-77
2022/04/26 08:30:37;;;;;;;3.70;2.78;;;13.00;99.90;;;;;;5044660;28;20021;-77
2022/04/26 08:33:03;;;;;;;2.55;2.10;;;13.20;99.90;;;;;;5029470;28;20041;-80
2022/04/26 08:35:29;;;;;;;4.13;3.40;;;12.60;99.90;;;;;;5027706;28;20107;-77
2022/04/26 08:37:55;;;;;;;3.05;2.38;;;12.50;99.90;;;;;;5029276;28;20025;-77
2022/04/26 08:40:20;;;;;;;4.15;2.28;;;13.00;99.90;;;;;;5029270;28;20032;-77
2022/04/26 08:42:48;;;;;;;2.70;2.25;;;13.00;99.90;;;;;;5032395;28;20021;-76
2022/04/26 08:45:19;;;;;;;2.97;2.45;;;13.30;99.90;;;;;;5049562;28;20017;-77
2022/04/26 08:53:20;;;;;;;3.63;2.50;;;14.00;99.90;;;;;;5048931;28;20090;-77
2022/04/26 08:55:51;;;;;;;4.40;2.67;;;13.30;99.90;;;;;;5048600;28;20483;-77
2022/04/26 08:58:18;;;;;;;3.15;2.63;;;13.20;99.90;;;;;;5048923;28;20393;-77
2022/04/26 09:01:25;;;;;;;2.50;2.30;;;13.30;99.90;;;;;;5048903;28;20619;-77
2022/04/26 09:03:54;;;;;;;2.60;2.30;;;13.70;99.90;;;;;;5028752;28;20049;-77
2022/04/26 09:06:34;;;;;;;4.63;2.83;;;13.70;99.90;;;;;;5046010;28;20208;-77
2022/04/26 09:09:29;;;;;;;6.43;3.05;;;13.50;99.90;;;;;;5046702;28;20104;-77
2022/04/26 09:11:59;;;;;;;2.78;2.40;;;13.20;99.90;;;;;;5048022;28;20040;-78
2022/04/26 09:14:37;;;;;;;5.60;3.67;;;13.40;99.90;;;;;;5034688;28;20029;-77
2022/04/26 09:17:07;;;;;;;4.35;2.55;;;14.40;99.90;;;;;;5028663;28;20159;-76
2022/04/26 09:19:56;;;;;;;3.15;2.85;;;12.90;99.90;;;;;;5028180;28;20026;-77
2022/04/26 09:22:26;;;;;;;4.95;3.20;;;12.60;99.90;;;;;;5043841;28;20417;-76
2022/04/26 09:25:03;;;;;;;;;;;12.50;99.90;;;;;;5028920;28;20029;-77
2022/04/26 09:27:29;;;;;;;3.30;2.50;;;12.10;99.90;;;;;;5026637;28;20003;-77
2022/04/26 09:29:55;;;;;;;2.55;2.35;;;12.50;99.90;;;;;;5027028;28;20032;-77
2022/04/26 09:32:23;;;;;;;4.25;2.60;;;12.90;99.90;;;;;;5026689;28;20140;-77
2022/04/26 09:34:49;;;;;;;4.53;2.80;;;13.30;99.90;;;;;;5027020;28;20025;-78
2022/04/26 09:37:16;;;;;;;4.05;2.97;;;13.60;99.90;;;;;;5028193;28;20083;-78
2022/04/26 09:40:08;;;;;;;3.65;2.63;;;13.70;99.90;;;;;;5027964;28;20541;-77
2022/04/26 09:42:35;;;;;;;3.83;2.38;;;13.60;99.90;;;;;;5029724;28;20107;-77
2022/04/26 09:45:09;;;;;;;2.72;2.40;;;13.50;99.90;;;;;;5046868;28;20032;-77
2022/04/26 09:47:36;;;;;;;4.15;2.40;;;13.80;99.90;;;;;;5032669;28;20156;-77
2022/04/26 09:50:11;;;;;;;2.70;2.00;;;14.20;99.90;;;;;;5026886;28;20092;-77
2022/04/26 09:52:37;;;;;;;5.97;2.80;;;14.50;99.90;;;;;;5042776;28;20033;-77
2022/04/26 09:55:05;;;;;;;3.25;2.83;;;14.60;99.90;;;;;;5027764;28;20589;-77
2022/04/26 09:57:36;;;;;;;2.80;2.50;;;14.80;99.10;;;;;;5042870;28;20049;-77
2022/04/26 10:00:09;;;;;;;5.53;2.78;;;15.20;99.90;;;;;;5026500;28;20476;-78
2022/04/26 10:02:37;;;;;;;2.40;2.20;;;14.80;86.50;;;;;;5043563;28;20048;-77
2022/04/26 10:05:06;;;;;;;3.08;2.78;;;15.40;92.80;;;;;;5027715;28;20111;-77
2022/04/26 10:07:36;;;;;;;3.87;2.83;;;15.20;92.50;;;;;;5042790;28;20458;-77
2022/04/26 10:10:04;;;;;;;2.78;2.53;;;14.70;78.60;;;;;;5026500;28;20036;-77
2022/04/26 10:12:32;;;;;;;4.25;3.00;;;14.20;81.80;;;;;;5027377;28;20072;-77
2022/04/26 10:14:59;;;;;;;4.22;2.28;;;13.90;99.90;;;;;;5026025;28;20514;-77
2022/04/26 10:17:26;;;;;;;2.78;2.50;;;14.10;92.80;;;;;;5027744;28;20549;-76
2022/04/26 10:19:52;;;;;;;3.08;2.60;;;14.20;90.00;;;;;;5026631;28;20018;-77
2022/04/26 10:22:56;;;;;;;2.63;2.15;;;14.20;91.50;;;;;;5027157;28;20048;-77
2022/04/26 10:25:23;;;;;;;3.78;2.53;;;14.60;93.10;;;;;;5027895;28;20290;-77
2022/04/26 10:28:16;;;;;;;3.47;2.35;;;14.60;86.90;;;;;;5025689;28;20032;-77
2022/04/26 10:30:53;;;;;;;5.43;2.50;;;14.10;85.00;;;;;;5025439;28;20274;-77
2022/04/26 10:33:40;;;;;;;4.07;2.55;;;13.70;92.90;;;;;;5041558;28;20116;-78
2022/04/26 10:36:28;;;;;;;5.53;2.15;;;13.50;82.80;;;;;;5036686;28;20028;-77
2022/04/26 10:39:26;;;;;;;4.13;2.30;;;13.00;90.50;;;;;;5046841;28;20052;-77
2022/04/26 10:41:54;;;;;;;4.30;2.67;;;12.90;99.90;;;;;;5010335;28;20033;-78
2022/04/26 10:44:22;;;;;;;3.72;2.60;;;12.90;99.00;;;;;;5027941;28;20108;-77
2022/04/26 10:47:09;;;;;;;4.57;2.50;;;12.90;94.40;;;;;;5025599;28;20549;-77
2022/04/26 10:49:44;;;;;;;7.97;3.03;;;13.70;99.90;;;;;;5027680;28;20245;-77
2022/04/26 10:52:19;;;;;;;3.85;2.63;;;13.80;99.90;;;;;;5024633;28;20029;-77
2022/04/26 10:57:18;;;;;;;2.67;2.33;;;14.60;99.90;;;;;;5025110;28;20508;-77
2022/04/26 10:59:48;;;;;;;3.45;2.20;;;15.10;89.20;;;;;;5033074;28;20268;-77
2022/04/26 11:02:18;;;;;;;5.07;2.67;;;15.50;85.30;;;;;;5038154;28;20088;-77
2022/04/26 11:04:45;;;;;;;4.53;2.70;;;14.90;75.60;;;;;;5035820;28;20025;-77
2022/04/26 11:07:12;;;;;;;2.63;2.42;;;14.70;78.10;;;;;;5024549;28;20076;-77
2022/04/26 11:09:44;;;;;;;5.22;2.28;;;15.10;79.20;;;;;;5023307;28;20308;-77
2022/04/26 11:12:10;;;;;;;4.93;2.28;;;15.30;73.30;;;;;;5023369;28;20042;-76
2022/04/26 11:14:42;;;;;;;5.03;2.40;;;16.20;70.90;;;;;;5023646;28;20057;-77
2022/04/26 11:17:08;;;;;;;4.80;2.47;;;16.10;72.90;;;;;;5023583;28;20049;-77
2022/04/26 11:19:38;;;;;;;3.38;2.08;;;16.20;72.80;;;;;;5023305;28;20025;-77
2022/04/26 11:22:08;;;;;;;2.17;2.03;;;16.50;72.00;;;;;;5025414;28;20083;-78
2022/04/26 11:30:07;;;;;;;3.60;2.28;;;16.10;68.90;;;;;;5026731;28;20118;-78
2022/04/26 11:32:44;;;;;;;3.47;2.28;;;15.10;73.10;;;;;;5027824;28;20430;-78
2022/04/26 11:35:21;;;;;;;3.25;2.53;;;14.90;70.90;;;;;;5029691;28;20367;-77
2022/04/26 11:37:49;;;;;;;3.75;2.30;;;15.30;75.30;;;;;;5034626;28;20030;-77
2022/04/26 11:40:38;;;;;;;2.72;2.40;;;15.80;71.30;;;;;;5035519;28;20022;-77
2022/04/26 11:43:11;;;;;;;2.53;2.30;;;16.20;66.40;;;;;;5045672;28;20036;-77
2022/04/26 11:45:39;;;;;;;1.90;1.80;;;15.90;68.70;;;;;;5031473;28;20186;-78
2022/04/26 11:48:08;;;;;;;3.42;2.03;;;15.10;70.00;;;;;;5041963;28;20029;-76
2022/04/26 11:50:34;;;;;;;;;;;14.40;74.40;;;;;;5051017;28;20486;-77
2022/04/26 11:53:08;;;;;;;4.07;2.05;;;14.20;77.50;;;;;;5050801;28;20000;-77
2022/04/26 11:55:36;;;;;;;3.00;2.20;;;14.20;73.00;;;;;;5049611;28;20025;-76
2022/04/26 11:58:22;;;;;;;3.28;2.35;;;14.10;68.20;;;;;;5049845;28;20075;-76
2022/04/26 12:01:02;;;;;;;3.17;2.05;;;14.90;69.40;;;;;;5048794;28;20033;-76
2022/04/26 12:03:49;;;;;;;4.95;2.30;;;14.60;69.30;;;;;;5050271;28;20470;-77
2022/04/26 12:06:20;;;;;;;2.85;1.95;;;14.70;69.00;;;;;;5050240;28;20068;-77
2022/04/26 12:08:48;;;;;;;3.58;1.80;;;14.70;71.40;;;;;;5048144;28;20108;-78
2022/04/26 12:11:22;;;;;;;1.70;1.60;;;14.70;69.50;;;;;;5048454;28;20028;-77
2022/04/26 12:14:02;;;;;;;3.05;2.25;;;14.60;72.50;;;;;;5049795;28;20535;-78
2022/04/26 12:16:31;;;;;;;2.30;2.10;;;15.00;71.60;;;;;;5049630;28;20494;-76
2022/04/26 12:19:00;;;;;;;3.35;2.58;;;14.80;73.50;;;;;;5049993;28;20037;-77
2022/04/26 12:21:27;;;;;;;2.33;2.13;;;14.40;77.70;;;;;;5048529;28;20459;-78
2022/04/26 12:24:21;;;;;;;5.25;2.67;;;14.20;79.00;;;;;;5049610;28;20033;-78
2022/04/26 12:27:17;;;;;;;2.92;2.10;;;14.20;76.00;;;;;;5047973;28;20138;-78
2022/04/26 12:29:44;;;;;;;2.22;2.10;;;15.20;75.20;;;;;;5047420;28;20299;-76
2022/04/26 12:32:18;;;;;;;4.22;1.75;;;15.60;73.40;;;;;;5052269;28;20343;-77
2022/04/26 12:34:56;;;;;;;3.72;2.28;;;16.90;70.30;;;;;;5049866;28;20162;-77
2022/04/26 12:37:29;;;;;;;2.20;2.00;;;17.70;67.60;;;;;;5030796;28;20029;-76
2022/04/26 12:40:00;;;;;;;2.58;1.83;;;17.80;65.60;;;;;;5028840;28;20488;-77
2022/04/26 12:42:39;;;;;;;1.98;1.63;;;17.80;65.60;;;;;;5028978;28;20025;-76
2022/04/26 12:45:12;;;;;;;2.38;1.85;;;17.80;65.50;;;;;;5028643;28;20561;-78
2022/04/26 12:50:35;;;;;;;4.45;3.30;;;17.90;63.50;;;;;;5029261;28;20516;-77
2022/04/26 12:53:24;;;;;;;5.82;2.25;;;18.50;62.30;;;;;;5029035;28;20033;-77
2022/04/26 12:55:52;;;;;;;4.68;1.77;;;18.60;61.30;;;;;;5028751;28;20584;-77
2022/04/26 12:58:19;;;;;;;5.85;2.63;;;18.30;62.40;;;;;;5027470;28;20029;-76
2022/04/26 13:00:51;;;;;;;5.07;1.80;;;18.10;62.10;;;;;;5029192;28;20114;-78
2022/04/26 13:03:21;;;;;;;4.68;1.48;;;18.70;62.90;;;;;;5028980;28;20026;-78
2022/04/26 13:05:50;;;;;;;3.60;2.05;;;19.30;65.60;;;;;;5028923;28;20039;-77
2022/04/26 13:08:18;;;;;;;3.80;2.35;;;18.60;61.00;;;;;;5028405;28;20390;-77
2022/04/26 13:10:46;;;;;;;3.58;1.77;;;16.90;62.50;;;;;;5028976;28;20506;-77
2022/04/26 13:13:14;;;;;;;1.88;1.60;;;15.40;64.00;;;;;;5035160;28;20037;-77
2022/04/26 13:15:43;;;;;;;1.50;1.30;;;14.80;67.00;;;;;;5039765;28;20033;-78
2022/04/26 13:18:10;;;;;;;1.88;1.77;;;15.20;68.30;;;;;;5038532;28;20049;-77
2022/04/26 13:20:37;;;;;;;1.90;1.67;;;16.10;66.10;;;;;;5039749;28;20024;-77
2022/04/26 13:23:03;;;;;;;3.00;1.50;;;15.50;63.30;;;;;;5035957;28;20548;-77
2022/04/26 13:25:30;;;;;;;4.22;2.13;;;15.40;66.50;;;;;;5036161;28;20036;-77
2022/04/26 13:27:56;;;;;;;2.22;2.03;;;14.90;72.30;;;;;;5036887;28;20040;-78
2022/04/26 13:30:23;;;;;;;2.13;1.98;;;15.00;70.50;;;;;;5035931;28;20033;-77
2022/04/26 13:32:49;;;;;;;4.20;2.15;;;15.70;69.50;;;;;;5039801;28;20049;-77
2022/04/26 13:35:15;;;;;;;3.15;1.92;;;16.80;65.40;;;;;;5048432;28;20017;-77
2022/04/26 13:37:43;;;;;;;1.40;1.40;;;17.20;66.60;;;;;;5048397;28;20033;-76
2022/04/26 13:40:09;;;;;;;2.42;1.30;;;16.70;63.30;;;;;;5048365;28;20029;-77
2022/04/26 13:42:36;;;;;;;4.10;1.90;;;16.50;62.20;;;;;;5045090;28;20471;-75
2022/04/26 13:45:04;;;;;;;3.25;1.80;;;16.80;62.10;;;;;;5028344;28;20109;-77
2022/04/26 13:47:30;;;;;;;2.97;1.90;;;16.80;61.30;;;;;;5027604;28;20519;-76
2022/04/26 13:49:56;;;;;;;2.38;2.05;;;16.30;62.00;;;;;;5026561;28;20041;-76
2022/04/26 13:52:22;;;;;;;2.83;1.67;;;16.30;62.50;;;;;;5027395;28;20029;-77
2022/04/26 13:54:49;;;;;;;2.58;2.15;;;15.70;61.90;;;;;;5028016;28;20116;-77
2022/04/26 13:57:15;;;;;;;2.25;1.92;;;16.00;63.10;;;;;;5026027;28;20116;-77
2022/04/26 13:59:42;;;;;;;4.15;2.20;;;16.70;65.30;;;;;;5026231;28;20120;-77
2022/04/26 14:02:07;;;;;;;2.25;1.80;;;17.60;62.60;;;;;;5026388;28;20075;-77
2022/04/26 14:04:34;;;;;;;3.33;1.90;;;17.10;61.00;;;;;;5026172;28;20048;-77
2022/04/26 14:07:01;;;;;;;2.58;1.65;;;16.80;60.30;;;;;;5026188;28;20260;-77
2022/04/26 14:09:26;;;;;;;2.20;1.88;;;17.90;64.50;;;;;;5024534;28;20426;-77
2022/04/26 14:11:54;;;;;;;5.35;2.00;;;16.30;66.00;;;;;;5025848;28;20033;-77
2022/04/26 14:22:54;;;;;;;5.90;1.90;;;16.30;65.20;;;;;;5003893;28;20553;-77
2022/04/26 14:25:20;;;;;;;3.00;1.60;;;17.40;68.10;;;;;;5016920;28;20034;-76
2022/04/26 14:27:48;;;;;;;3.55;1.70;;;17.50;64.80;;;;;;5026800;28;20183;-77
2022/04/26 14:30:15;;;;;;;4.88;3.00;;;17.30;65.70;;;;;;5026368;28;20030;-77
2022/04/26 14:32:41;;;;;;;2.35;1.95;;;17.70;61.70;;;;;;5028498;28;20064;-76
2022/04/26 14:35:07;;;;;;;2.03;1.92;;;17.50;61.70;;;;;;5032272;28;20096;-76
2022/04/26 14:37:33;;;;;;;2.85;1.90;;;17.20;62.30;;;;;;5027158;28;20080;-77
2022/04/26 14:39:59;;;;;;;4.70;2.10;;;16.30;63.80;;;;;;5027634;28;20047;-77
2022/04/26 14:42:26;;;;;;;2.53;1.90;;;15.80;66.50;;;;;;5027231;28;20017;-76
2022/04/26 14:44:52;;;;;;;2.60;1.88;;;15.30;66.20;;;;;;5027296;28;20025;-77
2022/04/26 14:47:18;;;;;;;2.28;1.90;;;15.30;67.80;;;;;;5027337;28;20021;-76
2022/04/26 14:49:43;;;;;;;2.20;1.75;;;15.00;66.90;;;;;;5026611;28;20025;-77
2022/04/26 14:52:14;;;;;;;1.65;1.52;;;14.80;64.70;;;;;;5027241;28;20017;-77
2022/04/26 14:54:40;;;;;;;3.55;2.20;;;14.80;68.10;;;;;;5025640;28;20048;-77
2022/04/26 14:57:06;;;;;;;1.40;1.30;;;15.00;68.90;;;;;;5025368;28;20017;-77
2022/04/26 14:59:33;;;;;;;1.77;1.65;;;15.20;68.70;;;;;;5026115;28;20402;-77
2022/04/26 15:01:59;;;;;;;2.35;2.10;;;14.90;67.00;;;;;;5026687;28;20292;-77
2022/04/26 15:04:25;;;;;;;1.85;1.75;;;14.90;68.60;;;;;;5026955;28;20569;-76
2022/04/26 15:06:51;;;;;;;4.05;2.25;;;15.30;69.20;;;;;;5026545;28;20061;-76
2022/04/26 15:17:31;;;;;;;4.25;2.33;;;17.90;62.20;;;;;;5027239;28;20536;-77
2022/04/26 15:19:57;;;;;;;5.30;1.95;;;17.90;61.70;;;;;;5026273;28;20371;-76
2022/04/26 15:22:24;;;;;;;2.13;2.00;;;17.40;62.30;;;;;;5029330;28;20022;-76
2022/04/26 15:24:51;;;;;;;1.58;1.48;;;17.60;62.10;;;;;;5046118;28;20029;-76
2022/04/26 15:27:18;;;;;;;4.32;2.00;;;17.90;59.90;;;;;;5046217;28;20021;-77
2022/04/26 15:29:44;;;;;;;2.20;2.00;;;17.70;60.40;;;;;;5045978;28;20465;-77
2022/04/26 15:32:10;;;;;;;2.45;2.10;;;17.90;59.30;;;;;;5046203;28;20014;-77
2022/04/26 15:34:36;;;;;;;3.88;1.95;;;17.60;58.60;;;;;;5046300;28;20044;-77
2022/04/26 15:37:04;;;;;;;3.60;2.15;;;18.00;60.00;;;;;;5041765;28;20030;-77
2022/04/26 15:39:30;;;;;;;2.30;2.10;;;18.10;59.90;;;;;;5037243;28;20044;-78
2022/04/26 15:41:56;;;;;;;2.35;1.70;;;18.60;58.50;;;;;;5045733;28;20019;-77
2022/04/26 15:44:23;;;;;;;2.00;1.70;;;18.10;59.50;;;;;;5028490;28;20069;-77
2022/04/26 15:46:52;;;;;;;1.70;1.60;;;17.90;61.70;;;;;;5025418;28;20014;-77
2022/04/26 15:49:21;;;;;;;3.63;2.08;;;18.30;59.30;;;;;;5024831;28;20029;-77
2022/04/26 15:51:50;;;;;;;2.65;1.70;;;18.90;58.50;;;;;;5025734;28;20022;-77
2022/04/26 15:54:16;;;;;;;2.88;1.90;;;19.00;59.20;;;;;;5026419;28;20094;-77
2022/04/26 15:56:45;;;;;;;3.53;1.60;;;18.50;56.80;;;;;;5025900;28;20049;-77
2022/04/26 15:59:12;;;;;;;3.70;1.65;;;18.20;56.70;;;;;;5026489;28;20026;-76
2022/04/26 16:01:42;;;;;;;2.10;1.88;;;17.40;60.60;;;;;;5026975;28;20475;-77
2022/04/26 16:04:09;;;;;;;;;;;17.00;61.10;;;;;;5026595;28;20029;-77
2022/04/26 16:06:37;;;;;;;1.60;1.50;;;16.80;61.90;;;;;;5024946;28;19916;-77
2022/04/26 16:22:46;;;;;;;2.15;1.65;;;16.90;60.10;;;;;;5030538;28;20044;-77
2022/04/26 16:25:12;;;;;;;1.92;1.80;;;17.70;61.60;;;;;;5029457;28;20029;-76
2022/04/26 16:27:38;;;;;;;2.00;1.80;;;17.90;58.60;;;;;;5030011;28;20061;-78
2022/04/26 16:30:04;;;;;;;2.78;1.83;;;17.80;59.30;;;;;;5029453;28;20025;-77
2022/04/26 16:32:30;;;;;;;1.90;1.80;;;16.80;59.80;;;;;;5042377;28;20021;-77
2022/04/26 16:34:58;;;;;;;1.80;1.70;;;16.70;60.00;;;;;;5046426;28;20056;-77
2022/04/26 16:37:24;;;;;;;2.15;1.70;;;16.90;58.90;;;;;;5049905;28;20087;-76
2022/04/26 16:39:50;;;;;;;2.88;2.00;;;16.90;59.20;;;;;;5048834;28;20520;-77
2022/04/26 16:42:16;;;;;;;1.70;1.60;;;16.90;59.80;;;;;;5046984;28;20025;-78
2022/04/26 16:44:42;;;;;;;2.88;1.73;;;17.20;60.00;;;;;;5029800;28;20029;-77
2022/04/26 16:47:10;;;;;;;4.15;1.88;;;17.30;61.60;;;;;;5029197;28;20119;-77
2022/04/26 16:49:36;;;;;;;2.47;1.67;;;16.70;60.10;;;;;;5027627;28;20026;-77
2022/04/26 16:52:04;;;;;;;3.30;1.55;;;17.00;61.10;;;;;;5028070;28;20485;-76
2022/04/26 16:54:30;;;;;;;3.78;1.85;;;17.40;60.50;;;;;;5029263;28;20343;-75
2022/04/26 16:56:56;;;;;;;2.40;1.88;;;17.40;59.30;;;;;;5028706;28;20078;-77
2022/04/26 16:59:23;;;;;;;5.35;1.70;;;17.60;61.20;;;;;;5027818;28;20034;-76
2022/04/26 17:01:49;;;;;;;2.80;1.70;;;17.60;57.40;;;;;;5029697;28;20112;-77
2022/04/26 17:04:15;;;;;;;2.80;2.13;;;17.90;58.90;;;;;;5029267;28;20034;-77
2022/04/26 17:06:41;;;;;;;2.15;1.90;;;17.50;59.80;;;;;;5027659;28;20370;-77
2022/04/26 17:09:07;;;;;;;4.03;1.95;;;16.60;60.30;;;;;;5027605;28;20040;-78
2022/04/26 17:11:43;;;;;;;2.58;1.85;;;16.00;60.60;;;;;;5027393;28;20029;-77
2022/04/26 17:14:19;;;;;;;2.50;2.08;;;15.60;60.30;;;;;;5029101;28;20033;-76
2022/04/26 17:16:47;;;;;;;6.07;2.40;;;14.90;62.80;;;;;;5028917;28;20503;-77
2022/04/26 17:19:16;;;;;;;2.10;1.83;;;14.60;64.70;;;;;;5044521;28;20032;-78
2022/04/26 17:21:43;;;;;;;4.55;2.97;;;14.40;67.10;;;;;;5064980;28;20024;-77
2022/04/26 17:26:54;;;;;;;4.22;2.95;;;13.50;72.20;;;;;;5049347;28;20075;-77
2022/04/26 17:29:20;;;;;;;5.07;2.85;;;13.10;75.50;;;;;;5048430;28;20039;-76